Time;durP1;ratioP1;P1;durP2;ratioP2;P2;SDS_P1;SDS_P2;PMS_P1;PMS_P2;Temp;Humidity;BMP_temperature;BMP_pressure;BME280_temperature;BME280_humidity;BME280_pressure;Samples;Min_cycle;Max_cycle;Signal;HPM_P1;HPM_P2
2023/07/25 00:01:48;;;;;;;;;;;22.20;59.90;;;;;;10333006;28;94418;-64
2023/07/25 00:06:50;;;;;;;;;;;22.20;59.80;;;;;;10333510;28;94495;-63
2023/07/25 00:11:51;;;;;;;;;;;22.20;59.80;;;;;;10330616;28;96487;-63
2023/07/25 00:16:53;;;;;;;;;;;22.20;59.70;;;;;;10332011;28;93505;-63
2023/07/25 00:21:55;;;;;;;;;;;22.20;59.70;;;;;;10314966;28;94524;-63
2023/07/25 00:26:57;;;;;;;;;;;22.20;59.60;;;;;;10333161;28;93198;-64
2023/07/25 00:31:59;;;;;;;;;;;22.20;59.60;;;;;;10331865;28;96224;-63
2023/07/25 00:37:00;;;;;;;;;;;22.10;59.60;;;;;;10332129;28;94682;-63
2023/07/25 00:42:02;;;;;;;;;;;22.10;59.50;;;;;;10331529;28;94490;-63
2023/07/25 00:47:04;;;;;;;;;;;22.10;59.50;;;;;;10333125;28;93777;-63
2023/07/25 00:52:06;;;;;;;;;;;22.10;59.50;;;;;;10330348;28;94482;-63
2023/07/25 00:57:08;;;;;;;;;;;22.10;59.50;;;;;;10331610;28;93481;-62
2023/07/25 01:02:10;;;;;;;;;;;22.10;59.50;;;;;;10311952;28;95783;-63
2023/07/25 01:07:13;;;;;;;;;;;22.00;60.40;;;;;;10332187;28;94436;-63
2023/07/25 01:12:15;;;;;;;;;;;22.00;59.40;;;;;;10331732;28;92907;-63
2023/07/25 01:17:19;;;;;;;;;;;22.00;59.40;;;;;;10313681;28;93588;-63
2023/07/25 01:22:22;;;;;;;;;;;22.00;59.40;;;;;;10330610;28;94305;-63
2023/07/25 01:27:24;;;;;;;;;;;22.00;59.30;;;;;;10331924;28;94392;-63
2023/07/25 01:32:26;;;;;;;;;;;22.00;59.30;;;;;;10330931;28;94430;-62
2023/07/25 01:37:28;;;;;;;;;;;22.00;59.30;;;;;;10314165;28;92664;-63
2023/07/25 01:42:31;;;;;;;;;;;21.90;59.20;;;;;;10312339;28;92561;-62
2023/07/25 01:47:33;;;;;;;;;;;21.90;59.20;;;;;;10330604;28;93424;-63
2023/07/25 01:52:35;;;;;;;;;;;21.90;59.10;;;;;;10327309;28;95860;-62
2023/07/25 01:57:37;;;;;;;;;;;21.90;59.10;;;;;;10329283;28;93459;-62
2023/07/25 02:02:38;;;;;;;;;;;21.90;59.10;;;;;;10330266;28;94873;-63
2023/07/25 02:07:40;;;;;;;;;;;21.90;59.10;;;;;;10329764;28;94867;-63
2023/07/25 02:12:42;;;;;;;;;;;21.90;59.00;;;;;;10330025;28;94425;-63
2023/07/25 02:17:44;;;;;;;;;;;21.90;59.00;;;;;;10328741;28;93417;-63
2023/07/25 02:22:46;;;;;;;;;;;21.80;58.90;;;;;;10328831;28;94425;-63
2023/07/25 02:27:47;;;;;;;;;;;21.80;59.00;;;;;;10330487;28;92037;-63
2023/07/25 02:32:49;;;;;;;;;;;21.80;58.90;;;;;;10328577;28;94465;-63
2023/07/25 02:37:51;;;;;;;;;;;21.80;58.90;;;;;;10328768;28;94880;-63
2023/07/25 02:42:52;;;;;;;;;;;21.80;59.00;;;;;;10325440;28;97010;-63
2023/07/25 02:47:54;;;;;;;;;;;21.80;58.90;;;;;;10328273;28;93222;-63
2023/07/25 02:52:56;;;;;;;;;;;21.80;58.80;;;;;;10327883;28;93398;-63
2023/07/25 02:57:58;;;;;;;;;;;21.80;58.80;;;;;;10327232;28;94394;-63
2023/07/25 03:03:00;;;;;;;;;;;21.70;58.80;;;;;;10310552;28;93433;-63
2023/07/25 03:08:02;;;;;;;;;;;21.70;58.90;;;;;;10332235;28;94445;-63
2023/07/25 03:13:03;;;;;;;;;;;21.70;58.80;;;;;;10317889;28;93526;-63
2023/07/25 03:18:05;;;;;;;;;;;21.70;58.90;;;;;;10335971;28;92110;-62
2023/07/25 03:23:07;;;;;;;;;;;21.70;58.90;;;;;;10334645;28;93491;-63
2023/07/25 03:28:09;;;;;;;;;;;21.70;58.90;;;;;;10332793;28;94339;-63
2023/07/25 03:33:11;;;;;;;;;;;21.70;59.00;;;;;;10331659;28;95468;-63
2023/07/25 03:38:12;;;;;;;;;;;21.70;59.00;;;;;;10334132;28;93392;-63
2023/07/25 03:43:14;;;;;;;;;;;21.70;59.00;;;;;;10333169;28;92879;-62
2023/07/25 03:48:16;;;;;;;;;;;21.70;59.10;;;;;;10335042;28;95178;-63
2023/07/25 03:53:18;;;;;;;;;;;21.70;59.10;;;;;;10333048;28;93439;-62
2023/07/25 03:58:19;;;;;;;;;;;21.70;59.00;;;;;;10315588;28;94717;-63
2023/07/25 04:03:21;;;;;;;;;;;21.70;59.10;;;;;;10315484;28;94755;-63
2023/07/25 04:08:27;;;;;;;;;;;21.70;59.20;;;;;;10333914;28;94156;-61
2023/07/25 04:13:29;;;;;;;;;;;21.70;59.10;;;;;;10332754;28;93535;-62
2023/07/25 04:18:31;;;;;;;;;;;21.70;59.10;;;;;;10332757;28;94393;-63
2023/07/25 04:23:32;;;;;;;;;;;21.70;59.30;;;;;;10329901;28;96026;-63
2023/07/25 04:28:34;;;;;;;;;;;21.70;59.10;;;;;;10332067;28;93449;-63
2023/07/25 04:33:36;;;;;;;;;;;21.70;59.30;;;;;;10332594;28;93486;-63
2023/07/25 04:38:38;;;;;;;;;;;21.70;59.20;;;;;;10332939;28;94637;-63
2023/07/25 04:43:39;;;;;;;;;;;21.70;59.10;;;;;;10314979;28;94538;-63
2023/07/25 04:48:41;;;;;;;;;;;21.70;59.20;;;;;;10674009;22;93447;-63
2023/07/25 04:53:43;;;;;;;;;;;21.70;59.20;;;;;;10331140;28;93624;-63
2023/07/25 04:58:44;;;;;;;;;;;21.70;59.20;;;;;;10332120;28;92678;-63
2023/07/25 05:03:46;;;;;;;;;;;21.80;59.20;;;;;;10328924;28;95818;-64
2023/07/25 05:08:48;;;;;;;;;;;21.70;59.30;;;;;;10308525;28;94477;-65
2023/07/25 05:13:50;;;;;;;;;;;21.70;59.50;;;;;;10324400;28;96065;-64
2023/07/25 05:18:52;;;;;;;;;;;21.80;59.50;;;;;;10308129;28;94190;-63
2023/07/25 05:23:53;;;;;;;;;;;21.80;59.50;;;;;;10331611;28;94655;-65
2023/07/25 05:28:55;;;;;;;;;;;21.80;59.50;;;;;;10328694;28;93478;-63
2023/07/25 05:33:57;;;;;;;;;;;21.80;59.50;;;;;;10330232;28;92601;-65
2023/07/25 05:38:59;;;;;;;;;;;21.80;59.60;;;;;;10329173;28;93446;-65
2023/07/25 05:44:00;;;;;;;;;;;21.80;59.60;;;;;;10329854;28;94517;-65
2023/07/25 05:49:02;;;;;;;;;;;21.80;59.70;;;;;;10308896;28;92575;-64
2023/07/25 05:54:08;;;;;;;;;;;21.90;59.70;;;;;;10328894;28;93392;-66
2023/07/25 05:59:10;;;;;;;;;;;21.90;59.70;;;;;;10328592;28;93465;-65
2023/07/25 06:04:13;;;;;;;;;;;21.90;59.70;;;;;;10327087;28;95908;-65
2023/07/25 06:09:15;;;;;;;;;;;21.90;59.70;;;;;;10311046;28;93410;-66
2023/07/25 06:14:17;;;;;;;;;;;21.90;59.90;;;;;;10328832;28;94431;-65
2023/07/25 06:19:19;;;;;;;;;;;21.90;60.00;;;;;;10310346;28;93453;-65
2023/07/25 06:24:20;;;;;;;;;;;21.90;60.00;;;;;;10328693;28;92603;-64
2023/07/25 06:29:22;;;;;;;;;;;21.90;60.10;;;;;;10328971;28;94424;-65
2023/07/25 06:34:24;;;;;;;;;;;21.90;60.10;;;;;;10329599;28;93519;-65
2023/07/25 06:39:25;;;;;;;;;;;21.90;60.20;;;;;;10329009;28;92723;-66
2023/07/25 06:44:27;;;;;;;;;;;21.90;60.30;;;;;;10310721;28;93966;-65
2023/07/25 06:49:29;;;;;;;;;;;21.90;60.40;;;;;;10327593;28;93526;-65
2023/07/25 06:54:31;;;;;;;;;;;22.00;60.40;;;;;;10325134;28;96817;-65
2023/07/25 06:59:32;;;;;;;;;;;22.00;60.50;;;;;;10328553;28;93039;-65
2023/07/25 07:04:34;;;;;;;;;;;22.10;60.60;;;;;;10325209;28;93471;-63
2023/07/25 07:09:36;;;;;;;;;;;22.10;60.50;;;;;;10327120;28;93292;-63
2023/07/25 07:14:38;;;;;;;;;;;22.10;60.60;;;;;;10327969;28;94763;-64
2023/07/25 07:19:40;;;;;;;;;;;22.10;60.80;;;;;;10327430;28;94546;-64
2023/07/25 07:24:41;;;;;;;;;;;22.10;60.60;;;;;;10328729;28;93217;-65
2023/07/25 07:29:43;;;;;;;;;;;22.10;61.20;;;;;;10328375;28;93703;-63
2023/07/25 07:34:45;;;;;;;;;;;22.30;62.40;;;;;;10326932;28;94423;-64
2023/07/25 07:39:47;;;;;;;;;;;22.40;61.70;;;;;;10327940;28;93442;-65
2023/07/25 07:44:49;;;;;;;;;;;22.50;60.80;;;;;;10323577;28;95775;-63
2023/07/25 07:49:51;;;;;;;;;;;22.60;60.30;;;;;;10326424;28;93447;-65
2023/07/25 07:54:52;;;;;;;;;;;22.60;59.90;;;;;;10323682;28;93493;-63
2023/07/25 07:59:54;;;;;;;;;;;22.60;60.20;;;;;;10329915;28;93386;-64
2023/07/25 08:04:56;;;;;;;;;;;22.60;60.00;;;;;;10314445;28;93928;-65
2023/07/25 08:09:58;;;;;;;;;;;22.60;60.20;;;;;;10332114;28;93489;-64
2023/07/25 08:15:00;;;;;;;;;;;22.50;60.10;;;;;;10333351;28;94405;-65
2023/07/25 08:20:02;;;;;;;;;;;22.50;60.20;;;;;;10325784;28;93551;-64
2023/07/25 08:25:04;;;;;;;;;;;22.40;60.20;;;;;;10327832;28;93562;-65
2023/07/25 08:30:06;;;;;;;;;;;22.40;60.10;;;;;;10313046;28;93707;-65
2023/07/25 08:35:08;;;;;;;;;;;22.40;60.00;;;;;;10329465;28;95166;-64
2023/07/25 08:40:10;;;;;;;;;;;22.40;60.10;;;;;;10332562;28;94062;-63
2023/07/25 08:45:12;;;;;;;;;;;22.40;60.10;;;;;;10332093;28;94642;-63
2023/07/25 08:50:15;;;;;;;;;;;22.40;60.10;;;;;;10331343;28;94388;-64
2023/07/25 08:55:16;;;;;;;;;;;22.40;60.10;;;;;;10313387;28;94556;-63
2023/07/25 09:00:19;;;;;;;;;;;22.30;59.90;;;;;;10331261;28;94732;-64
2023/07/25 09:05:23;;;;;;;;;;;22.30;59.90;;;;;;10329636;28;94957;-63
2023/07/25 09:10:26;;;;;;;;;;;22.30;59.80;;;;;;10331792;28;92747;-64
2023/07/25 09:15:28;;;;;;;;;;;22.30;59.70;;;;;;10331523;28;94653;-63
2023/07/25 09:20:29;;;;;;;;;;;22.30;59.70;;;;;;10330557;28;93496;-64
2023/07/25 09:25:31;;;;;;;;;;;22.30;59.70;;;;;;10328363;28;95934;-63
2023/07/25 09:30:33;;;;;;;;;;;22.30;59.50;;;;;;10330926;28;94514;-63
2023/07/25 09:35:44;;;;;;;;;;;22.30;59.50;;;;;;10331632;28;94039;-64
2023/07/25 09:40:48;;;;;;;;;;;22.30;59.50;;;;;;10330858;28;113948;-64
2023/07/25 09:45:50;;;;;;;;;;;22.30;59.40;;;;;;10329480;28;94336;-63
2023/07/25 09:50:52;;;;;;;;;;;22.30;59.30;;;;;;10330244;28;94461;-64
2023/07/25 09:55:54;;;;;;;;;;;22.30;59.30;;;;;;10330355;28;92494;-63
2023/07/25 10:00:57;;;;;;;;;;;22.30;58.90;;;;;;10330785;28;93760;-64
2023/07/25 10:05:59;;;;;;;;;;;22.40;59.00;;;;;;10330054;28;93432;-63
2023/07/25 10:11:02;;;;;;;;;;;22.50;58.80;;;;;;10330363;28;93416;-63
2023/07/25 10:16:04;;;;;;;;;;;22.50;58.70;;;;;;10328323;28;96830;-63
2023/07/25 10:21:07;;;;;;;;;;;22.50;58.70;;;;;;10312676;28;94673;-64
2023/07/25 10:26:12;;;;;;;;;;;22.50;58.50;;;;;;10311913;28;93381;-63
2023/07/25 10:31:22;;;;;;;;;;;22.60;58.50;;;;;;10330048;28;92725;-63
2023/07/25 10:36:24;;;;;;;;;;;22.60;58.40;;;;;;10330291;28;96494;-64
2023/07/25 10:41:26;;;;;;;;;;;22.70;58.30;;;;;;10329068;28;94481;-63
2023/07/25 10:46:28;;;;;;;;;;;22.70;58.10;;;;;;10311640;28;93972;-64
2023/07/25 10:51:48;;;;;;;;;;;22.80;58.10;;;;;;10330587;28;92526;-64
2023/07/25 10:57:09;;;;;;;;;;;22.80;58.00;;;;;;10330246;28;94679;-63
2023/07/25 11:02:27;;;;;;;;;;;22.80;57.90;;;;;;10329225;28;93463;-64
2023/07/25 11:07:30;;;;;;;;;;;22.80;57.90;;;;;;10328105;28;96820;-63
2023/07/25 11:12:32;;;;;;;;;;;22.80;57.90;;;;;;10329018;28;92809;-64
2023/07/25 11:17:34;;;;;;;;;;;22.80;57.90;;;;;;10329909;28;94631;-64
2023/07/25 11:22:36;;;;;;;;;;;22.70;59.00;;;;;;10294820;28;93942;-63
2023/07/25 11:27:44;;;;;;;;;;;22.70;58.00;;;;;;10330635;28;93446;-63
2023/07/25 11:32:47;;;;;;;;;;;22.60;58.00;;;;;;10336419;28;94144;-64
2023/07/25 11:37:57;;;;;;;;;;;22.60;58.20;;;;;;10335958;28;93935;-63
2023/07/25 11:43:01;;;;;;;;;;;22.50;58.30;;;;;;10336858;28;93781;-63
2023/07/25 11:48:06;;;;;;;;;;;22.50;58.30;;;;;;10334148;28;93408;-63
2023/07/25 11:53:08;;;;;;;;;;;22.40;58.30;;;;;;10335499;28;94542;-63
2023/07/25 11:58:14;;;;;;;;;;;22.40;58.40;;;;;;10333583;28;95168;-64
2023/07/25 12:03:17;;;;;;;;;;;22.40;58.50;;;;;;10335847;28;94237;-63
2023/07/25 12:08:32;;;;;;;;;;;22.40;58.50;;;;;;10317064;28;93493;-63
2023/07/25 12:13:43;;;;;;;;;;;22.40;58.50;;;;;;10335041;28;94441;-64
2023/07/25 12:18:50;;;;;;;;;;;22.40;58.60;;;;;;10335112;28;94523;-63
2023/07/25 12:23:52;;;;;;;;;;;22.30;58.40;;;;;;10334226;28;93424;-63
2023/07/25 12:28:54;;;;;;;;;;;22.40;58.40;;;;;;10333778;28;93603;-64
2023/07/25 12:33:56;;;;;;;;;;;22.30;58.30;;;;;;10335289;28;93799;-64
2023/07/25 12:38:58;;;;;;;;;;;22.40;58.40;;;;;;10333822;28;93526;-63
2023/07/25 12:44:00;;;;;;;;;;;22.40;58.40;;;;;;10333421;28;94446;-63
2023/07/25 12:49:04;;;;;;;;;;;22.40;58.40;;;;;;10330369;28;97128;-63
2023/07/25 12:54:05;;;;;;;;;;;22.40;58.50;;;;;;10334273;28;94763;-64
2023/07/25 12:59:07;;;;;;;;;;;22.30;58.40;;;;;;10333722;28;93451;-63
2023/07/25 13:04:09;;;;;;;;;;;22.30;58.40;;;;;;10332869;28;93592;-63
2023/07/25 13:09:11;;;;;;;;;;;22.30;58.40;;;;;;10334304;28;93264;-63
2023/07/25 13:14:13;;;;;;;;;;;22.30;58.40;;;;;;10314627;28;94511;-63
2023/07/25 13:19:16;;;;;;;;;;;22.30;58.50;;;;;;10332171;28;93457;-63
2023/07/25 13:24:18;;;;;;;;;;;22.30;58.40;;;;;;10333280;28;93788;-64
2023/07/25 13:29:20;;;;;;;;;;;22.30;58.40;;;;;;10332110;28;93503;-64
2023/07/25 13:34:22;;;;;;;;;;;22.30;58.40;;;;;;10332542;28;92716;-64
2023/07/25 13:39:26;;;;;;;;;;;22.30;58.30;;;;;;10329823;28;95736;-63
2023/07/25 13:44:27;;;;;;;;;;;22.30;58.20;;;;;;10332447;28;94702;-63
2023/07/25 13:49:30;;;;;;;;;;;22.30;58.30;;;;;;10330097;28;93455;-63
2023/07/25 13:54:33;;;;;;;;;;;22.30;58.00;;;;;;10331844;28;96019;-64
2023/07/25 13:59:35;;;;;;;;;;;22.30;58.00;;;;;;10313736;28;94482;-63
2023/07/25 14:04:39;;;;;;;;;;;22.30;58.00;;;;;;10331258;28;93819;-64
2023/07/25 14:09:41;;;;;;;;;;;22.30;58.00;;;;;;10330855;28;93502;-64
2023/07/25 14:14:43;;;;;;;;;;;22.30;57.90;;;;;;10331868;28;93787;-63
2023/07/25 14:19:45;;;;;;;;;;;22.30;57.80;;;;;;10314321;28;94491;-63
2023/07/25 14:24:47;;;;;;;;;;;22.30;57.80;;;;;;10329422;28;93532;-64
2023/07/25 14:29:50;;;;;;;;;;;22.30;57.90;;;;;;10328148;28;96834;-63
2023/07/25 14:34:52;;;;;;;;;;;22.30;57.90;;;;;;10329571;28;93105;-63
2023/07/25 14:39:54;;;;;;;;;;;22.30;57.90;;;;;;10329307;28;93818;-63
2023/07/25 14:44:56;;;;;;;;;;;22.30;57.80;;;;;;10329954;28;93631;-64
2023/07/25 14:49:57;;;;;;;;;;;22.30;57.70;;;;;;10328990;28;94496;-64
2023/07/25 14:54:59;;;;;;;;;;;22.30;57.80;;;;;;10329358;28;92605;-64
2023/07/25 15:00:01;;;;;;;;;;;22.30;57.80;;;;;;10329301;28;94412;-63
2023/07/25 15:05:03;;;;;;;;;;;22.30;57.60;;;;;;10328758;28;92698;-64
2023/07/25 15:10:05;;;;;;;;;;;22.30;57.70;;;;;;10330499;28;96407;-63
2023/07/25 15:15:07;;;;;;;;;;;22.30;57.60;;;;;;10330068;28;93418;-64
2023/07/25 15:20:09;;;;;;;;;;;22.30;57.70;;;;;;10309577;28;95846;-64
2023/07/25 15:25:11;;;;;;;;;;;22.30;57.60;;;;;;10328620;28;94512;-64
2023/07/25 15:30:13;;;;;;;;;;;22.30;57.30;;;;;;10311053;28;94388;-63
2023/07/25 15:35:15;;;;;;;;;;;22.30;57.50;;;;;;10328241;28;94560;-64
2023/07/25 15:40:17;;;;;;;;;;;22.30;57.40;;;;;;10328977;28;94099;-63
2023/07/25 15:45:19;;;;;;;;;;;22.30;57.40;;;;;;10327895;28;93463;-64
2023/07/25 15:50:22;;;;;;;;;;;22.30;57.40;;;;;;10328633;28;93863;-63
2023/07/25 15:55:24;;;;;;;;;;;22.30;57.50;;;;;;10328524;28;93837;-64
2023/07/25 16:00:26;;;;;;;;;;;22.30;57.40;;;;;;10328888;28;93629;-63
2023/07/25 16:05:28;;;;;;;;;;;22.20;57.30;;;;;;10310055;28;94510;-63
2023/07/25 16:10:30;;;;;;;;;;;22.20;57.60;;;;;;10325943;28;96872;-64
2023/07/25 16:15:32;;;;;;;;;;;22.20;57.80;;;;;;10333274;28;93363;-63
2023/07/25 16:20:34;;;;;;;;;;;22.20;57.90;;;;;;10334500;28;93942;-63
2023/07/25 16:25:36;;;;;;;;;;;22.20;58.10;;;;;;10316296;28;93463;-64
2023/07/25 16:30:38;;;;;;;;;;;22.20;58.30;;;;;;10334768;28;93415;-64
2023/07/25 16:35:40;;;;;;;;;;;22.20;58.30;;;;;;10333930;28;93574;-64
2023/07/25 16:40:43;;;;;;;;;;;22.10;58.30;;;;;;10333822;28;94169;-63
2023/07/25 16:45:44;;;;;;;;;;;22.10;58.40;;;;;;10335055;28;93725;-63
2023/07/25 16:50:46;;;;;;;;;;;22.10;58.50;;;;;;10333389;28;94481;-63
2023/07/25 16:55:48;;;;;;;;;;;22.10;58.60;;;;;;10333667;28;92519;-64
2023/07/25 17:00:51;;;;;;;;;;;22.10;58.70;;;;;;10330997;28;95813;-63
2023/07/25 17:05:52;;;;;;;;;;;22.10;58.80;;;;;;10334072;28;94637;-64
2023/07/25 17:10:55;;;;;;;;;;;22.10;58.80;;;;;;10332824;28;93454;-63
2023/07/25 17:15:57;;;;;;;;;;;22.10;58.90;;;;;;10333121;28;94440;-63
2023/07/25 17:20:59;;;;;;;;;;;22.10;59.00;;;;;;10332580;28;92706;-63
2023/07/25 17:26:01;;;;;;;;;;;22.10;59.10;;;;;;10331507;28;93600;-63
2023/07/25 17:31:03;;;;;;;;;;;22.10;59.10;;;;;;10331800;28;93484;-63
2023/07/25 17:36:05;;;;;;;;;;;22.10;59.10;;;;;;10334184;28;93683;-63
2023/07/25 17:41:08;;;;;;;;;;;22.10;59.00;;;;;;10332465;28;94514;-63
2023/07/25 17:46:09;;;;;;;;;;;22.10;59.00;;;;;;10331981;28;93455;-63
2023/07/25 17:51:11;;;;;;;;;;;22.10;59.10;;;;;;10328714;28;96922;-64
2023/07/25 17:56:13;;;;;;;;;;;22.10;59.10;;;;;;10313397;28;92727;-64
2023/07/25 18:01:15;;;;;;;;;;;22.10;59.10;;;;;;10314112;28;93615;-64
2023/07/25 18:06:17;;;;;;;;;;;22.10;59.10;;;;;;10331098;28;94656;-63
2023/07/25 18:11:19;;;;;;;;;;;22.20;59.20;;;;;;10331801;28;94754;-63
2023/07/25 18:16:21;;;;;;;;;;;22.10;59.00;;;;;;10330216;28;93547;-64
2023/07/25 18:21:22;;;;;;;;;;;22.10;59.00;;;;;;10330862;28;93285;-63
2023/07/25 18:26:24;;;;;;;;;;;22.10;58.90;;;;;;10331773;28;92321;-63
2023/07/25 18:31:26;;;;;;;;;;;22.10;58.90;;;;;;10330111;28;94437;-63
2023/07/25 18:36:28;;;;;;;;;;;22.10;58.90;;;;;;10329678;28;93450;-64
2023/07/25 18:41:30;;;;;;;;;;;22.10;58.80;;;;;;10328126;28;96915;-64
2023/07/25 18:46:32;;;;;;;;;;;22.10;58.80;;;;;;10330414;28;93752;-64
2023/07/25 18:51:34;;;;;;;;;;;22.10;58.80;;;;;;10329601;28;94907;-64
2023/07/25 18:56:36;;;;;;;;;;;22.10;58.80;;;;;;10330359;28;94486;-64
2023/07/25 19:01:38;;;;;;;;;;;22.10;58.70;;;;;;10329726;28;94438;-63
2023/07/25 19:06:40;;;;;;;;;;;22.10;58.70;;;;;;10329034;28;94407;-63
2023/07/25 19:11:43;;;;;;;;;;;22.10;58.60;;;;;;10330525;28;93401;-65
2023/07/25 19:16:44;;;;;;;;;;;22.10;58.50;;;;;;10329447;28;93617;-65
2023/07/25 19:21:46;;;;;;;;;;;22.10;58.50;;;;;;10331191;28;94687;-65
2023/07/25 19:26:48;;;;;;;;;;;22.00;58.40;;;;;;10329222;28;93476;-65
2023/07/25 19:31:50;;;;;;;;;;;22.10;58.60;;;;;;10325857;28;96821;-65
2023/07/25 19:36:52;;;;;;;;;;;22.00;58.50;;;;;;10329485;28;94375;-65
2023/07/25 19:41:53;;;;;;;;;;;22.00;58.40;;;;;;10329139;28;94435;-65
2023/07/25 19:46:55;;;;;;;;;;;22.10;58.50;;;;;;10329050;28;93399;-65
2023/07/25 19:51:58;;;;;;;;;;;22.00;58.40;;;;;;10335209;28;93552;-65
2023/07/25 19:57:00;;;;;;;;;;;22.00;58.30;;;;;;10334793;28;93478;-65
2023/07/25 20:02:02;;;;;;;;;;;22.00;58.30;;;;;;10335806;28;94437;-65
2023/07/25 20:07:04;;;;;;;;;;;22.00;58.20;;;;;;10335734;28;92912;-65
2023/07/25 20:12:06;;;;;;;;;;;22.10;58.30;;;;;;10317373;28;94604;-65
2023/07/25 20:17:08;;;;;;;;;;;22.00;58.20;;;;;;10335265;28;94785;-65
2023/07/25 20:22:09;;;;;;;;;;;22.00;58.30;;;;;;10314054;28;97093;-65
2023/07/25 20:27:11;;;;;;;;;;;22.00;58.20;;;;;;10315686;28;93604;-65
2023/07/25 20:32:13;;;;;;;;;;;22.00;58.20;;;;;;10334511;28;93951;-65
2023/07/25 20:37:15;;;;;;;;;;;22.00;58.40;;;;;;10334255;28;94427;-65
2023/07/25 20:42:16;;;;;;;;;;;21.90;58.30;;;;;;10333818;28;94692;-65
2023/07/25 20:47:18;;;;;;;;;;;21.90;58.30;;;;;;10334505;28;94795;-65
2023/07/25 20:52:20;;;;;;;;;;;21.90;58.40;;;;;;10332910;28;93604;-65
2023/07/25 20:57:22;;;;;;;;;;;21.90;58.50;;;;;;10334034;28;94095;-65
2023/07/25 21:02:24;;;;;;;;;;;21.90;58.50;;;;;;10333586;28;94456;-65
2023/07/25 21:07:26;;;;;;;;;;;21.90;58.50;;;;;;10332409;28;93444;-65
2023/07/25 21:12:28;;;;;;;;;;;21.90;58.50;;;;;;10331041;28;96777;-65
2023/07/25 21:17:29;;;;;;;;;;;21.90;58.60;;;;;;10332378;28;92538;-65
2023/07/25 21:22:31;;;;;;;;;;;21.80;58.50;;;;;;10314556;28;94477;-65
2023/07/25 21:27:35;;;;;;;;;;;21.80;58.50;;;;;;10332709;28;94402;-65
2023/07/25 21:32:36;;;;;;;;;;;21.80;58.60;;;;;;10315109;28;94532;-65
2023/07/25 21:37:38;;;;;;;;;;;21.80;58.50;;;;;;10332542;28;93303;-65
2023/07/25 21:42:40;;;;;;;;;;;21.80;58.50;;;;;;10331912;28;93471;-65
2023/07/25 21:47:42;;;;;;;;;;;21.80;58.60;;;;;;10331882;28;92988;-65
2023/07/25 21:52:44;;;;;;;;;;;21.80;58.60;;;;;;10330752;28;93463;-65
2023/07/25 21:57:45;;;;;;;;;;;21.80;59.60;;;;;;10332163;28;94505;-65
2023/07/25 22:02:47;;;;;;;;;;;21.80;58.70;;;;;;10329577;28;96515;-65
2023/07/25 22:07:49;;;;;;;;;;;21.70;58.60;;;;;;10330946;28;93358;-65
2023/07/25 22:12:51;;;;;;;;;;;21.80;58.70;;;;;;10332198;28;94466;-65
2023/07/25 22:17:53;;;;;;;;;;;21.70;58.70;;;;;;10331786;28;93156;-65
2023/07/25 22:22:55;;;;;;;;;;;21.70;58.70;;;;;;10331103;28;93676;-65
2023/07/25 22:27:57;;;;;;;;;;;21.70;58.70;;;;;;10331435;28;94349;-65
2023/07/25 22:32:59;;;;;;;;;;;21.70;58.70;;;;;;10331452;28;94461;-65
2023/07/25 22:38:01;;;;;;;;;;;21.70;59.70;;;;;;10331996;28;93326;-65
2023/07/25 22:43:03;;;;;;;;;;;21.70;58.60;;;;;;10312320;28;93494;-65
2023/07/25 22:48:05;;;;;;;;;;;21.80;58.60;;;;;;10329413;28;93582;-64
2023/07/25 22:53:07;;;;;;;;;;;21.80;58.60;;;;;;10327605;28;97294;-65
2023/07/25 22:58:08;;;;;;;;;;;21.80;58.70;;;;;;10330362;28;94851;-65
2023/07/25 23:03:10;;;;;;;;;;;21.80;58.50;;;;;;10329724;28;93761;-65
2023/07/25 23:08:12;;;;;;;;;;;21.80;58.50;;;;;;10329100;28;94449;-65
2023/07/25 23:13:14;;;;;;;;;;;21.80;58.40;;;;;;10329613;28;93469;-65
2023/07/25 23:18:15;;;;;;;;;;;21.80;58.40;;;;;;10329600;28;93468;-65
2023/07/25 23:23:17;;;;;;;;;;;21.80;58.40;;;;;;10331901;28;94549;-65
2023/07/25 23:28:19;;;;;;;;;;;21.80;58.40;;;;;;10302880;28;92751;-65
2023/07/25 23:33:21;;;;;;;;;;;21.80;58.30;;;;;;10317822;28;93454;-65
2023/07/25 23:38:23;;;;;;;;;;;21.80;58.20;;;;;;10335826;28;93351;-65
2023/07/25 23:43:25;;;;;;;;;;;21.80;58.20;;;;;;10314811;28;96805;-65
2023/07/25 23:48:26;;;;;;;;;;;21.80;58.10;;;;;;10336055;28;94798;-65
2023/07/25 23:53:28;;;;;;;;;;;21.80;58.10;;;;;;10335159;28;93525;-65
2023/07/25 23:58:30;;;;;;;;;;;21.80;58.20;;;;;;10335531;28;94369;-65
